Chignik, Alaska
Current Conditions -  °F | °C
As of 8:54 PM on Sunday 21 Dec 2014 (Local Time) from PAKN Reporting Station
Overcast Overcast  
Wind Chill: 12°   Ceiling: 7000
Heat Index: 12°   Visibility: 10mi
Dew Point:   Wind: 3mph
Humidity: 80%   Direction: 330°NNW
Pressure: 29.49"   Gusts: NA
Location:  58.11°N, 156°W
Report Text: PAKN 220554Z 33003KT 10SM FEW040 BKN070 OVC150 M11/M14 A2949 RMK AO2 SLP986 T11111139 11089 21111 53025
Loading
Personal Weather Stations






























Interactive Weather Map New forecast layout! Learn more

10-Day Weather Forecast

Advertisements
Track Severe Weather on mobile